RJAW/IWO METAR and TAF weather

Enter ICAO airport designator
Station Type Date Time Source
RJAW METAR 2020/07/09 07:22 UTC NOAA

RJAW 090722Z 13015G25KT 5000 -SHRA BR FEW010 BKN015 FEW015CB 26/24 Q1012 RMK 2CU010 7CU015 2CB015 A2990 CB 5KM NW MOV NW


Station Type Date Time Source
RJAW Decoded METAR 2020/07/09 07:22 UTC NOAA

Iwojima, Japan (RJAW) 24-47N 141-19E 116M
Jul 09, 2020 - 03:22 AM EDT / 2020.07.09 0722 UTC
Wind: from the SE (130 degrees) at 17 MPH (15 KT) gusting to 29 MPH (25 KT):0
Visibility: 3 mile(s):0
Sky conditions: mostly cloudy
Weather: light rain showers; mist; Cumulonimbus clouds observed
Temperature: 78 F (26 C)
Dew Point: 75 F (24 C)
Relative Humidity: 88%
Pressure (altimeter): 29.88 in. Hg (1012 hPa)
ob: RJAW 090722Z 13015G25KT 5000 -SHRA BR FEW010 BKN015 FEW015CB 26/24 Q1012 RMK 2CU010 7CU015 2CB015 A2990 CB 5KM NW MOV NW
cycle: 7

Station Type Date Time Source
RJAW TAF UTC NOAA

Error!

Example: see airport list